sensor_id;sensor_type;location;lat;lon;timestamp;pressure;altitude;pressure_sealevel;temperature;humidity
21664;BME280;10993;52.510;13.456;2022-12-07T00:02:53;-26238.13;;;3.50;100.00
21664;BME280;10993;52.510;13.456;2022-12-07T00:07:53;-26236.38;;;3.45;100.00
21664;BME280;10993;52.510;13.456;2022-12-07T00:12:53;-26238.59;;;3.52;100.00
21664;BME280;10993;52.510;13.456;2022-12-07T00:17:55;-26235.59;;;3.42;100.00
21664;BME280;10993;52.510;13.456;2022-12-07T00:22:55;-26234.00;;;3.37;100.00
21664;BME280;10993;52.510;13.456;2022-12-07T00:27:56;-26228.59;;;3.20;100.00
21664;BME280;10993;52.510;13.456;2022-12-07T00:32:58;-26227.66;;;3.16;100.00
21664;BME280;10993;52.510;13.456;2022-12-07T00:37:58;-26224.00;;;3.05;100.00
21664;BME280;10993;52.510;13.456;2022-12-07T00:42:58;-26227.00;;;3.14;100.00
21664;BME280;10993;52.510;13.456;2022-12-07T00:48:00;-26225.75;;;3.10;100.00
21664;BME280;10993;52.510;13.456;2022-12-07T00:53:00;-26226.06;;;3.11;100.00
21664;BME280;10993;52.510;13.456;2022-12-07T00:58:00;-26227.00;;;3.14;100.00
21664;BME280;10993;52.510;13.456;2022-12-07T01:03:03;-26225.44;;;3.09;100.00
21664;BME280;10993;52.510;13.456;2022-12-07T01:08:04;-26218.44;;;2.87;100.00
21664;BME280;10993;52.510;13.456;2022-12-07T01:13:05;-26207.34;;;2.50;100.00
21664;BME280;10993;52.510;13.456;2022-12-07T01:18:06;-26204.16;;;2.40;100.00
21664;BME280;10993;52.510;13.456;2022-12-07T01:23:07;-26198.13;;;2.21;100.00
21664;BME280;10993;52.510;13.456;2022-12-07T01:28:07;-26211.31;;;2.63;100.00
21664;BME280;10993;52.510;13.456;2022-12-07T01:33:09;-26211.78;;;2.65;100.00
21664;BME280;10993;52.510;13.456;2022-12-07T01:38:09;-26217.50;;;2.83;100.00
21664;BME280;10993;52.510;13.456;2022-12-07T01:43:15;-26216.84;;;2.81;100.00
21664;BME280;10993;52.510;13.456;2022-12-07T01:48:20;-26211.94;;;2.65;100.00
21664;BME280;10993;52.510;13.456;2022-12-07T01:53:24;-26214.31;;;2.73;100.00
21664;BME280;10993;52.510;13.456;2022-12-07T01:58:26;-26217.19;;;2.82;100.00
21664;BME280;10993;52.510;13.456;2022-12-07T02:03:31;-26217.66;;;2.84;100.00
21664;BME280;10993;52.510;13.456;2022-12-07T02:08:32;-26215.28;;;2.76;100.00
21664;BME280;10993;52.510;13.456;2022-12-07T02:13:35;-26215.91;;;2.78;100.00
21664;BME280;10993;52.510;13.456;2022-12-07T02:18:48;-26217.66;;;2.84;100.00
21664;BME280;10993;52.510;13.456;2022-12-07T02:24:19;-26212.56;;;2.67;100.00
21664;BME280;10993;52.510;13.456;2022-12-07T02:29:25;-26211.47;;;2.64;100.00
21664;BME280;10993;52.510;13.456;2022-12-07T02:34:34;-26212.09;;;2.66;100.00
21664;BME280;10993;52.510;13.456;2022-12-07T02:39:42;-26209.25;;;2.57;100.00
21664;BME280;10993;52.510;13.456;2022-12-07T02:44:46;-26206.06;;;2.46;100.00
21664;BME280;10993;52.510;13.456;2022-12-07T02:49:47;-26206.06;;;2.46;100.00
21664;BME280;10993;52.510;13.456;2022-12-07T02:54:49;-26207.81;;;2.52;100.00
21664;BME280;10993;52.510;13.456;2022-12-07T02:59:59;-26205.59;;;2.45;100.00
21664;BME280;10993;52.510;13.456;2022-12-07T03:05:12;-26194.94;;;2.10;100.00
21664;BME280;10993;52.510;13.456;2022-12-07T03:10:21;-26206.06;;;2.46;100.00
21664;BME280;10993;52.510;13.456;2022-12-07T03:15:31;-26198.13;;;2.21;100.00
21664;BME280;10993;52.510;13.456;2022-12-07T03:20:34;-26208.59;;;2.55;100.00
21664;BME280;10993;52.510;13.456;2022-12-07T03:25:40;-26213.38;;;2.70;100.00
21664;BME280;10993;52.510;13.456;2022-12-07T03:30:47;-26213.22;;;2.70;100.00
21664;BME280;10993;52.510;13.456;2022-12-07T03:35:52;-26211.78;;;2.65;100.00
21664;BME280;10993;52.510;13.456;2022-12-07T03:41:00;-26212.88;;;2.68;100.00
21664;BME280;10993;52.510;13.456;2022-12-07T03:46:09;-26213.06;;;2.69;100.00
21664;BME280;10993;52.510;13.456;2022-12-07T03:51:20;-26212.41;;;2.67;100.00
21664;BME280;10993;52.510;13.456;2022-12-07T03:56:22;-26209.25;;;2.57;100.00
21664;BME280;10993;52.510;13.456;2022-12-07T04:01:24;-26209.88;;;2.59;100.00
21664;BME280;10993;52.510;13.456;2022-12-07T04:06:25;-26203.84;;;2.39;100.00
21664;BME280;10993;52.510;13.456;2022-12-07T04:11:25;-26205.75;;;2.45;100.00
21664;BME280;10993;52.510;13.456;2022-12-07T04:16:27;-26202.88;;;2.36;100.00
21664;BME280;10993;52.510;13.456;2022-12-07T04:21:27;-26199.41;;;2.25;100.00
21664;BME280;10993;52.510;13.456;2022-12-07T04:26:27;-26199.06;;;2.24;100.00
21664;BME280;10993;52.510;13.456;2022-12-07T04:31:29;-26202.88;;;2.36;100.00
21664;BME280;10993;52.510;13.456;2022-12-07T04:36:30;-26200.03;;;2.27;100.00
21664;BME280;10993;52.510;13.456;2022-12-07T04:41:30;-26206.69;;;2.48;100.00
21664;BME280;10993;52.510;13.456;2022-12-07T04:46:32;-26201.28;;;2.31;100.00
21664;BME280;10993;52.510;13.456;2022-12-07T04:51:33;-26195.91;;;2.13;100.00
21664;BME280;10993;52.510;13.456;2022-12-07T04:56:33;-26201.94;;;2.33;100.00
21664;BME280;10993;52.510;13.456;2022-12-07T05:01:36;-26204.16;;;2.40;100.00
21664;BME280;10993;52.510;13.456;2022-12-07T05:06:37;-26203.84;;;2.39;100.00
21664;BME280;10993;52.510;13.456;2022-12-07T05:11:37;-26208.59;;;2.55;100.00
21664;BME280;10993;52.510;13.456;2022-12-07T05:16:39;-26203.69;;;2.39;100.00
21664;BME280;10993;52.510;13.456;2022-12-07T05:21:40;-26211.16;;;2.63;100.00
21664;BME280;10993;52.510;13.456;2022-12-07T05:26:41;-26213.22;;;2.70;100.00
21664;BME280;10993;52.510;13.456;2022-12-07T05:31:43;-26211.94;;;2.65;100.00
21664;BME280;10993;52.510;13.456;2022-12-07T05:36:44;-26211.78;;;2.65;100.00
21664;BME280;10993;52.510;13.456;2022-12-07T05:41:44;-26213.84;;;2.72;100.00
21664;BME280;10993;52.510;13.456;2022-12-07T05:47:05;-26218.13;;;2.86;100.00
21664;BME280;10993;52.510;13.456;2022-12-07T05:52:05;-26224.16;;;3.05;100.00
21664;BME280;10993;52.510;13.456;2022-12-07T05:57:06;-26222.88;;;3.01;100.00
21664;BME280;10993;52.510;13.456;2022-12-07T06:02:09;-26224.78;;;3.07;100.00
21664;BME280;10993;52.510;13.456;2022-12-07T06:07:12;-26230.34;;;3.25;100.00
21664;BME280;10993;52.510;13.456;2022-12-07T06:12:13;-26229.88;;;3.24;100.00
21664;BME280;10993;52.510;13.456;2022-12-07T06:17:33;-26233.19;;;3.34;100.00
21664;BME280;10993;52.510;13.456;2022-12-07T06:22:34;-26234.00;;;3.37;100.00
21664;BME280;10993;52.510;13.456;2022-12-07T06:27:34;-26234.94;;;3.40;100.00
21664;BME280;10993;52.510;13.456;2022-12-07T06:32:37;-26237.50;;;3.48;100.00
21664;BME280;10993;52.510;13.456;2022-12-07T06:37:37;-26235.91;;;3.43;100.00
21664;BME280;10993;52.510;13.456;2022-12-07T06:42:37;-26233.38;;;3.35;100.00
21664;BME280;10993;52.510;13.456;2022-12-07T06:47:39;-26233.19;;;3.34;100.00
21664;BME280;10993;52.510;13.456;2022-12-07T06:52:39;-26235.25;;;3.41;100.00
21664;BME280;10993;52.510;13.456;2022-12-07T06:57:40;-26237.81;;;3.49;100.00
21664;BME280;10993;52.510;13.456;2022-12-07T07:02:41;-26237.97;;;3.50;100.00
21664;BME280;10993;52.510;13.456;2022-12-07T07:07:42;-26240.97;;;3.60;100.00
21664;BME280;10993;52.510;13.456;2022-12-07T07:12:42;-26242.56;;;3.65;100.00
21664;BME280;10993;52.510;13.456;2022-12-07T07:17:44;-26244.16;;;3.70;100.00
21664;BME280;10993;52.510;13.456;2022-12-07T07:22:45;-26243.81;;;3.69;100.00
21664;BME280;10993;52.510;13.456;2022-12-07T07:27:46;-26245.41;;;3.74;100.00
21664;BME280;10993;52.510;13.456;2022-12-07T07:32:48;-26250.47;;;3.91;100.00
21664;BME280;10993;52.510;13.456;2022-12-07T07:37:49;-26248.25;;;3.83;100.00
21664;BME280;10993;52.510;13.456;2022-12-07T07:42:52;-26246.06;;;3.76;100.00
21664;BME280;10993;52.510;13.456;2022-12-07T07:47:55;-26244.16;;;3.70;100.00
21664;BME280;10993;52.510;13.456;2022-12-07T07:52:56;-26241.59;;;3.62;100.00
21664;BME280;10993;52.510;13.456;2022-12-07T07:57:57;-26247.78;;;3.82;100.00
21664;BME280;10993;52.510;13.456;2022-12-07T08:02:59;-26250.47;;;3.91;100.00
21664;BME280;10993;52.510;13.456;2022-12-07T08:07:59;-26255.72;;;4.08;100.00
21664;BME280;10993;52.510;13.456;2022-12-07T08:12:59;-26255.88;;;4.08;100.00
21664;BME280;10993;52.510;13.456;2022-12-07T08:18:15;-26256.50;;;4.10;100.00
21664;BME280;10993;52.510;13.456;2022-12-07T08:23:15;-26254.44;;;4.04;100.00
21664;BME280;10993;52.510;13.456;2022-12-07T08:28:15;-26258.41;;;4.16;100.00
21664;BME280;10993;52.510;13.456;2022-12-07T08:33:17;-26261.41;;;4.26;100.00
21664;BME280;10993;52.510;13.456;2022-12-07T08:38:17;-26259.34;;;4.20;100.00
21664;BME280;10993;52.510;13.456;2022-12-07T08:43:18;-26258.56;;;4.17;100.00
21664;BME280;10993;52.510;13.456;2022-12-07T08:48:19;-26258.56;;;4.17;100.00
21664;BME280;10993;52.510;13.456;2022-12-07T08:53:22;-26259.03;;;4.18;100.00
21664;BME280;10993;52.510;13.456;2022-12-07T08:58:22;-26261.56;;;4.27;100.00
21664;BME280;10993;52.510;13.456;2022-12-07T09:03:24;-26262.53;;;4.30;100.00
21664;BME280;10993;52.510;13.456;2022-12-07T09:08:28;-26272.34;;;4.62;100.00
21664;BME280;10993;52.510;13.456;2022-12-07T09:13:30;-26267.59;;;4.46;100.00
21664;BME280;10993;52.510;13.456;2022-12-07T09:18:32;-26267.28;;;4.45;100.00
21664;BME280;10993;52.510;13.456;2022-12-07T09:23:32;-26275.19;;;4.71;100.00
21664;BME280;10993;52.510;13.456;2022-12-07T09:28:33;-26269.66;;;4.53;100.00
21664;BME280;10993;52.510;13.456;2022-12-07T09:33:35;-26269.03;;;4.51;100.00
21664;BME280;10993;52.510;13.456;2022-12-07T09:38:35;-26273.59;;;4.66;100.00
21664;BME280;10993;52.510;13.456;2022-12-07T09:43:36;-26263.31;;;4.32;100.00
21664;BME280;10993;52.510;13.456;2022-12-07T09:48:41;-26253.66;;;4.01;100.00
21664;BME280;10993;52.510;13.456;2022-12-07T09:53:43;-26265.22;;;4.39;100.00
21664;BME280;10993;52.510;13.456;2022-12-07T09:58:45;-26267.75;;;4.47;100.00
21664;BME280;10993;52.510;13.456;2022-12-07T10:03:50;-26264.09;;;4.35;100.00
21664;BME280;10993;52.510;13.456;2022-12-07T10:08:51;-26266.81;;;4.44;100.00
21664;BME280;10993;52.510;13.456;2022-12-07T10:13:52;-26265.06;;;4.38;100.00
21664;BME280;10993;52.510;13.456;2022-12-07T10:18:55;-26274.72;;;4.70;100.00
21664;BME280;10993;52.510;13.456;2022-12-07T10:24:00;-26273.59;;;4.66;100.00
21664;BME280;10993;52.510;13.456;2022-12-07T10:29:12;-26274.88;;;4.70;100.00
21664;BME280;10993;52.510;13.456;2022-12-07T10:34:22;-26279.78;;;4.86;100.00
21664;BME280;10993;52.510;13.456;2022-12-07T10:39:24;-26282.47;;;4.95;100.00
21664;BME280;10993;52.510;13.456;2022-12-07T10:44:26;-26319.94;;;6.17;95.57
21664;BME280;10993;52.510;13.456;2022-12-07T10:49:40;-26348.22;;;7.09;90.10
21664;BME280;10993;52.510;13.456;2022-12-07T10:54:50;-26324.22;;;6.31;93.24
21664;BME280;10993;52.510;13.456;2022-12-07T11:00:09;-26301.13;;;5.56;97.98
21664;BME280;10993;52.510;13.456;2022-12-07T11:05:21;-26278.66;;;4.82;100.00
21664;BME280;10993;52.510;13.456;2022-12-07T11:10:26;-26279.94;;;4.87;100.00
21664;BME280;10993;52.510;13.456;2022-12-07T11:15:49;-26291.03;;;5.23;100.00
21664;BME280;10993;52.510;13.456;2022-12-07T11:21:06;-26285.78;;;5.06;100.00
21664;BME280;10993;52.510;13.456;2022-12-07T11:26:13;-26278.50;;;4.82;100.00
21664;BME280;10993;52.510;13.456;2022-12-07T11:31:19;-26288.81;;;5.15;100.00
21664;BME280;10993;52.510;13.456;2022-12-07T11:36:33;-26288.31;;;5.14;100.00
21664;BME280;10993;52.510;13.456;2022-12-07T11:41:38;-26283.75;;;4.99;100.00
21664;BME280;10993;52.510;13.456;2022-12-07T11:46:47;-26284.38;;;5.01;100.00
21664;BME280;10993;52.510;13.456;2022-12-07T11:51:53;-26286.59;;;5.08;100.00
21664;BME280;10993;52.510;13.456;2022-12-07T11:57:02;-26294.03;;;5.32;100.00
21664;BME280;10993;52.510;13.456;2022-12-07T12:02:12;-26294.50;;;5.34;100.00
21664;BME280;10993;52.510;13.456;2022-12-07T12:07:17;-26295.13;;;5.36;100.00
21664;BME280;10993;52.510;13.456;2022-12-07T12:12:31;-26294.19;;;5.33;100.00
21664;BME280;10993;52.510;13.456;2022-12-07T12:17:47;-26296.22;;;5.40;100.00
21664;BME280;10993;52.510;13.456;2022-12-07T12:22:55;-26290.69;;;5.22;100.00
21664;BME280;10993;52.510;13.456;2022-12-07T12:27:59;-26301.28;;;5.56;100.00
21664;BME280;10993;52.510;13.456;2022-12-07T12:33:13;-26304.63;;;5.67;100.00
21664;BME280;10993;52.510;13.456;2022-12-07T12:38:31;-26300.19;;;5.52;100.00
21664;BME280;10993;52.510;13.456;2022-12-07T12:43:50;-26303.03;;;5.62;100.00
21664;BME280;10993;52.510;13.456;2022-12-07T12:49:19;-26307.16;;;5.75;100.00
21664;BME280;10993;52.510;13.456;2022-12-07T12:54:19;-26305.56;;;5.70;100.00
21664;BME280;10993;52.510;13.456;2022-12-07T12:59:25;-26295.44;;;5.37;100.00
21664;BME280;10993;52.510;13.456;2022-12-07T13:04:54;-26288.66;;;5.15;100.00
21664;BME280;10993;52.510;13.456;2022-12-07T13:09:56;-26295.44;;;5.37;100.00
21664;BME280;10993;52.510;13.456;2022-12-07T13:14:58;-26297.19;;;5.43;100.00
21664;BME280;10993;52.510;13.456;2022-12-07T13:19:59;-26296.22;;;5.40;100.00
21664;BME280;10993;52.510;13.456;2022-12-07T13:25:07;-26298.59;;;5.47;100.00
21664;BME280;10993;52.510;13.456;2022-12-07T13:30:14;-26293.38;;;5.30;100.00
21664;BME280;10993;52.510;13.456;2022-12-07T13:35:29;-26297.34;;;5.43;100.00
21664;BME280;10993;52.510;13.456;2022-12-07T13:40:31;-26290.38;;;5.21;100.00
21664;BME280;10993;52.510;13.456;2022-12-07T13:45:33;-26290.06;;;5.19;100.00
21664;BME280;10993;52.510;13.456;2022-12-07T13:50:55;-26290.53;;;5.21;100.00
21664;BME280;10993;52.510;13.456;2022-12-07T13:55:58;-26291.66;;;5.25;100.00
21664;BME280;10993;52.510;13.456;2022-12-07T14:00:59;-26289.91;;;5.19;100.00
21664;BME280;10993;52.510;13.456;2022-12-07T14:06:05;-26291.03;;;5.23;100.00
21664;BME280;10993;52.510;13.456;2022-12-07T14:11:09;-26287.84;;;5.12;100.00
21664;BME280;10993;52.510;13.456;2022-12-07T14:16:23;-26283.25;;;4.97;100.00
21664;BME280;10993;52.510;13.456;2022-12-07T14:21:26;-26284.69;;;5.02;100.00
21664;BME280;10993;52.510;13.456;2022-12-07T14:26:28;-26283.56;;;4.98;100.00
21664;BME280;10993;52.510;13.456;2022-12-07T14:31:29;-26281.69;;;4.92;100.00
21664;BME280;10993;52.510;13.456;2022-12-07T14:36:29;-26275.97;;;4.74;100.00
21664;BME280;10993;52.510;13.456;2022-12-07T14:41:31;-26278.03;;;4.80;100.00
21664;BME280;10993;52.510;13.456;2022-12-07T14:46:50;-26269.81;;;4.54;100.00
21664;BME280;10993;52.510;13.456;2022-12-07T14:51:51;-26264.41;;;4.36;100.00
21664;BME280;10993;52.510;13.456;2022-12-07T14:56:53;-26264.09;;;4.35;100.00
21664;BME280;10993;52.510;13.456;2022-12-07T15:01:54;-26258.72;;;4.17;100.00
21664;BME280;10993;52.510;13.456;2022-12-07T15:06:55;-26257.13;;;4.12;100.00
21664;BME280;10993;52.510;13.456;2022-12-07T15:11:57;-26252.38;;;3.97;100.00
21664;BME280;10993;52.510;13.456;2022-12-07T15:16:57;-26247.16;;;3.80;100.00
21664;BME280;10993;52.510;13.456;2022-12-07T15:21:58;-26240.03;;;3.57;100.00
21664;BME280;10993;52.510;13.456;2022-12-07T15:27:01;-26245.09;;;3.73;100.00
21664;BME280;10993;52.510;13.456;2022-12-07T15:32:01;-26240.34;;;3.58;100.00
21664;BME280;10993;52.510;13.456;2022-12-07T15:37:02;-26238.44;;;3.51;100.00
21664;BME280;10993;52.510;13.456;2022-12-07T15:42:04;-26231.47;;;3.29;100.00
21664;BME280;10993;52.510;13.456;2022-12-07T15:47:04;-26231.63;;;3.29;100.00
21664;BME280;10993;52.510;13.456;2022-12-07T15:52:05;-26245.41;;;3.74;100.00
21664;BME280;10993;52.510;13.456;2022-12-07T15:57:07;-26237.00;;;3.47;100.00
21664;BME280;10993;52.510;13.456;2022-12-07T16:02:07;-26249.06;;;3.86;100.00
21664;BME280;10993;52.510;13.456;2022-12-07T16:07:08;-26254.28;;;4.03;100.00
21664;BME280;10993;52.510;13.456;2022-12-07T16:12:10;-26253.66;;;4.01;100.00
21664;BME280;10993;52.510;13.456;2022-12-07T16:17:11;-26249.69;;;3.88;100.00
21664;BME280;10993;52.510;13.456;2022-12-07T16:22:12;-26243.81;;;3.69;100.00
21664;BME280;10993;52.510;13.456;2022-12-07T16:27:13;-26245.56;;;3.75;100.00
21664;BME280;10993;52.510;13.456;2022-12-07T16:32:14;-26240.03;;;3.57;100.00
21664;BME280;10993;52.510;13.456;2022-12-07T16:37:14;-26243.03;;;3.66;100.00
21664;BME280;10993;52.510;13.456;2022-12-07T16:42:16;-26241.91;;;3.63;100.00
21664;BME280;10993;52.510;13.456;2022-12-07T16:47:16;-26239.69;;;3.56;100.00
21664;BME280;10993;52.510;13.456;2022-12-07T16:52:16;-26234.16;;;3.38;100.00
21664;BME280;10993;52.510;13.456;2022-12-07T16:57:18;-26231.47;;;3.29;100.00
21664;BME280;10993;52.510;13.456;2022-12-07T17:02:19;-26230.97;;;3.27;100.00
21664;BME280;10993;52.510;13.456;2022-12-07T17:07:19;-26225.75;;;3.10;100.00
21664;BME280;10993;52.510;13.456;2022-12-07T17:12:21;-26222.56;;;3.00;100.00
21664;BME280;10993;52.510;13.456;2022-12-07T17:17:21;-26217.81;;;2.84;100.00
21664;BME280;10993;52.510;13.456;2022-12-07T17:22:21;-26214.31;;;2.73;100.00
21664;BME280;10993;52.510;13.456;2022-12-07T17:27:23;-26215.75;;;2.78;100.00
21664;BME280;10993;52.510;13.456;2022-12-07T17:32:24;-26211.47;;;2.64;100.00
21664;BME280;10993;52.510;13.456;2022-12-07T17:37:24;-26216.69;;;2.81;100.00
21664;BME280;10993;52.510;13.456;2022-12-07T17:42:26;-26211.31;;;2.63;100.00
21664;BME280;10993;52.510;13.456;2022-12-07T17:47:36;-26208.59;;;2.55;100.00
21664;BME280;10993;52.510;13.456;2022-12-07T17:52:37;-26206.06;;;2.46;100.00
21664;BME280;10993;52.510;13.456;2022-12-07T17:57:58;-26207.34;;;2.50;100.00
21664;BME280;10993;52.510;13.456;2022-12-07T18:02:58;-26209.72;;;2.58;100.00
21664;BME280;10993;52.510;13.456;2022-12-07T18:07:58;-26204.94;;;2.43;100.00
21664;BME280;10993;52.510;13.456;2022-12-07T18:13:00;-26205.91;;;2.46;100.00
21664;BME280;10993;52.510;13.456;2022-12-07T18:18:19;-26204.31;;;2.41;100.00
21664;BME280;10993;52.510;13.456;2022-12-07T18:23:19;-26201.63;;;2.32;100.00
21664;BME280;10993;52.510;13.456;2022-12-07T18:28:21;-26199.22;;;2.24;100.00
21664;BME280;10993;52.510;13.456;2022-12-07T18:33:22;-26199.22;;;2.24;100.00
21664;BME280;10993;52.510;13.456;2022-12-07T18:38:23;-26199.72;;;2.26;100.00
21664;BME280;10993;52.510;13.456;2022-12-07T18:43:24;-26198.75;;;2.23;100.00
21664;BME280;10993;52.510;13.456;2022-12-07T18:48:25;-26193.03;;;2.04;100.00
21664;BME280;10993;52.510;13.456;2022-12-07T18:53:25;-26195.09;;;2.11;100.00
21664;BME280;10993;52.510;13.456;2022-12-07T18:58:27;-26189.22;;;1.92;100.00
21664;BME280;10993;52.510;13.456;2022-12-07T19:03:28;-26187.94;;;1.88;100.00
21664;BME280;10993;52.510;13.456;2022-12-07T19:08:30;-26191.75;;;2.00;100.00
21664;BME280;10993;52.510;13.456;2022-12-07T19:13:31;-26186.84;;;1.84;100.00
21664;BME280;10993;52.510;13.456;2022-12-07T19:18:32;-26184.28;;;1.76;100.00
21664;BME280;10993;52.510;13.456;2022-12-07T19:23:32;-26182.38;;;1.70;100.00
21664;BME280;10993;52.510;13.456;2022-12-07T19:28:34;-26177.63;;;1.54;100.00
21664;BME280;10993;52.510;13.456;2022-12-07T19:33:34;-26179.84;;;1.61;100.00
21664;BME280;10993;52.510;13.456;2022-12-07T19:38:35;-26182.53;;;1.70;100.00
21664;BME280;10993;52.510;13.456;2022-12-07T19:43:36;-26173.00;;;1.39;100.00
21664;BME280;10993;52.510;13.456;2022-12-07T19:48:37;-26179.84;;;1.61;100.00
21664;BME280;10993;52.510;13.456;2022-12-07T19:53:37;-26178.41;;;1.57;100.00
21664;BME280;10993;52.510;13.456;2022-12-07T19:58:39;-26177.47;;;1.54;100.00
21664;BME280;10993;52.510;13.456;2022-12-07T20:03:39;-26176.03;;;1.49;100.00
21664;BME280;10993;52.510;13.456;2022-12-07T20:08:40;-26173.16;;;1.40;100.00
21664;BME280;10993;52.510;13.456;2022-12-07T20:13:42;-26176.19;;;1.49;100.00
21664;BME280;10993;52.510;13.456;2022-12-07T20:18:42;-26174.59;;;1.44;100.00
21664;BME280;10993;52.510;13.456;2022-12-07T20:23:43;-26177.31;;;1.53;100.00
21664;BME280;10993;52.510;13.456;2022-12-07T20:28:45;-26172.69;;;1.38;100.00
21664;BME280;10993;52.510;13.456;2022-12-07T20:33:46;-26169.81;;;1.29;100.00
21664;BME280;10993;52.510;13.456;2022-12-07T20:38:47;-26172.69;;;1.38;100.00
21664;BME280;10993;52.510;13.456;2022-12-07T20:43:48;-26176.81;;;1.52;100.00
21664;BME280;10993;52.510;13.456;2022-12-07T20:48:49;-26178.41;;;1.57;100.00
21664;BME280;10993;52.510;13.456;2022-12-07T20:53:50;-26182.06;;;1.69;100.00
21664;BME280;10993;52.510;13.456;2022-12-07T20:58:51;-26179.69;;;1.61;100.00
21664;BME280;10993;52.510;13.456;2022-12-07T21:03:53;-26177.94;;;1.55;100.00
21664;BME280;10993;52.510;13.456;2022-12-07T21:08:55;-26172.38;;;1.37;100.00
21664;BME280;10993;52.510;13.456;2022-12-07T21:13:57;-26172.84;;;1.39;100.00
21664;BME280;10993;52.510;13.456;2022-12-07T21:19:00;-26173.16;;;1.40;100.00
21664;BME280;10993;52.510;13.456;2022-12-07T21:24:02;-26176.66;;;1.51;100.00
21664;BME280;10993;52.510;13.456;2022-12-07T21:29:06;-26168.06;;;1.23;100.00
21664;BME280;10993;52.510;13.456;2022-12-07T21:34:06;-26171.09;;;1.33;100.00
21664;BME280;10993;52.510;13.456;2022-12-07T21:39:06;-26171.25;;;1.33;100.00
21664;BME280;10993;52.510;13.456;2022-12-07T21:44:08;-26189.22;;;1.92;100.00
21664;BME280;10993;52.510;13.456;2022-12-07T21:49:13;-26186.84;;;1.84;100.00
21664;BME280;10993;52.510;13.456;2022-12-07T21:54:14;-26193.69;;;2.06;100.00
21664;BME280;10993;52.510;13.456;2022-12-07T21:59:15;-26198.91;;;2.23;100.00
21664;BME280;10993;52.510;13.456;2022-12-07T22:04:21;-26193.34;;;2.05;100.00
21664;BME280;10993;52.510;13.456;2022-12-07T22:09:22;-26190.19;;;1.95;100.00
21664;BME280;10993;52.510;13.456;2022-12-07T22:14:24;-26192.41;;;2.02;100.00
21664;BME280;10993;52.510;13.456;2022-12-07T22:19:43;-26191.59;;;1.99;100.00
21664;BME280;10993;52.510;13.456;2022-12-07T22:24:43;-26189.53;;;1.93;100.00
21664;BME280;10993;52.510;13.456;2022-12-07T22:29:45;-26184.63;;;1.77;100.00
21664;BME280;10993;52.510;13.456;2022-12-07T22:34:45;-26182.22;;;1.69;100.00
21664;BME280;10993;52.510;13.456;2022-12-07T22:39:46;-26178.91;;;1.58;100.00
21664;BME280;10993;52.510;13.456;2022-12-07T22:44:47;-26180.97;;;1.65;100.00
21664;BME280;10993;52.510;13.456;2022-12-07T22:49:48;-26180.63;;;1.64;100.00
21664;BME280;10993;52.510;13.456;2022-12-07T22:54:48;-26181.59;;;1.67;100.00
21664;BME280;10993;52.510;13.456;2022-12-07T22:59:50;-26181.59;;;1.67;100.00
21664;BME280;10993;52.510;13.456;2022-12-07T23:04:50;-26177.94;;;1.55;100.00
21664;BME280;10993;52.510;13.456;2022-12-07T23:09:51;-26178.41;;;1.57;100.00
21664;BME280;10993;52.510;13.456;2022-12-07T23:14:52;-26177.94;;;1.55;100.00
21664;BME280;10993;52.510;13.456;2022-12-07T23:19:53;-26178.41;;;1.57;100.00
21664;BME280;10993;52.510;13.456;2022-12-07T23:24:54;-26177.31;;;1.53;100.00
21664;BME280;10993;52.510;13.456;2022-12-07T23:29:55;-26173.31;;;1.40;100.00
21664;BME280;10993;52.510;13.456;2022-12-07T23:34:56;-26176.19;;;1.49;100.00
21664;BME280;10993;52.510;13.456;2022-12-07T23:39:56;-26181.91;;;1.68;100.00
21664;BME280;10993;52.510;13.456;2022-12-07T23:44:58;-26186.53;;;1.83;100.00
21664;BME280;10993;52.510;13.456;2022-12-07T23:49:58;-26186.53;;;1.83;100.00
21664;BME280;10993;52.510;13.456;2022-12-07T23:54:58;-26188.28;;;1.89;100.00
